Granada — WDD5300 — position and weather

sailwx.info

Track history (hours):
 
Tides and Currents Weather Stations Pressure Air Temp Water Temp Dewpoint Dewpoint Depression Visibility Wind Speed Wind Dir Waves Ship Positions

Granada

Owner: Jordan, David P, Garibaldi, OR. More information available from US FCC via Universal Licensing System and Coast Guard Vessel Documentation Center.

Last reported at 2018-Jun-23 11:06 UTC. Time now 2018-Jun-23 11:59 UTC.
Position N 46°55' W 124°08'.

Length 22 m.

MMSI: 337796212.

Date/timePositionNaut miles runAvg speedWind from/ knotsBaromVisibWave heightAir tempDewpointWater temp
2018-Jun-23 11:06N 46°55' W 124°08'1 6.9
2018-Jun-23 11:00N 46°55' W 124°09'3 6.7
2018-Jun-23 10:30N 46°56' W 124°13'4 8.1
2018-Jun-23 10:01N 46°57' W 124°19'4 7.9
2018-Jun-23 09:31N 46°60' W 124°23'44 1.4
2018-Jun-22 01:41N 47°37' W 124°57'0 2.0
2018-Jun-22 01:29N 47°38' W 124°57'32 1.6
2018-Jun-21 05:06N 47°06' W 124°49'1 7.2
2018-Jun-21 04:55N 47°05' W 124°49'3 7.4
2018-Jun-21 04:30N 47°02' W 124°47'1 1.9
2018-Jun-21 03:58N 47°01' W 124°47'2 1.3
2018-Jun-21 02:38N 46°59' W 124°47'1 1.7
2018-Jun-21 02:19N 46°59' W 124°48'1 1.6
2018-Jun-21 01:49N 46°60' W 124°49'1 2.2
2018-Jun-21 01:27N 47°00' W 124°50'1 1.8
2018-Jun-21 00:51N 47°01' W 124°51'2 1.9
2018-Jun-20 23:45N 47°03' W 124°50'1 1.4
2018-Jun-20 23:19N 47°03' W 124°49'1 2.1
2018-Jun-20 22:49N 47°02' W 124°48'1 2.0
2018-Jun-20 22:22N 47°02' W 124°47'1 2.2
2018-Jun-20 21:57N 47°02' W 124°46'1 2.0
2018-Jun-20 21:28N 47°01' W 124°45'0 0.3
2018-Jun-20 20:48N 47°01' W 124°45'1 1.8
2018-Jun-20 20:27N 47°01' W 124°46'1 1.8
2018-Jun-20 19:58N 47°01' W 124°47'1 1.9
2018-Jun-20 19:22N 47°02' W 124°48'0 0.4
2018-Jun-20 18:12N 47°03' W 124°48'1 2.0
2018-Jun-20 17:56N 47°02' W 124°48'1 1.9
2018-Jun-20 17:21N 47°02' W 124°46'1 1.9
2018-Jun-20 16:58N 47°01' W 124°46'1 2.3
2018-Jun-20 16:24N 46°60' W 124°45'0 0.7
2018-Jun-20 15:56N 46°60' W 124°45'1 1.9
2018-Jun-20 15:24N 47°01' W 124°44'1 2.0
2018-Jun-20 14:44N 47°02' W 124°44'1 1.8
2018-Jun-20 14:20N 47°03' W 124°44'1 2.1
2018-Jun-20 13:39N 47°04' W 124°45'1 3.5
2018-Jun-20 13:28N 47°05' W 124°46'4 1.9
2018-Jun-20 11:27N 47°08' W 124°48'1 0.9
2018-Jun-20 10:33N 47°09' W 124°48'0 0.6
2018-Jun-20 10:30N 47°09' W 124°48'0 0.8
2018-Jun-20 09:56N 47°09' W 124°48'0 0.8
2018-Jun-20 09:31N 47°10' W 124°48'0 0.7
2018-Jun-20 09:00N 47°10' W 124°48'1 0.7
2018-Jun-20 08:09N 47°11' W 124°48'0 0.8
2018-Jun-20 07:56N 47°11' W 124°48'0 0.7
2018-Jun-20 07:30N 47°11' W 124°49'0 0.7
2018-Jun-20 06:58N 47°12' W 124°49'1 0.8
2018-Jun-20 05:32N 47°11' W 124°47'1 7.6
2018-Jun-20 05:27N 47°11' W 124°47'1 2.1
2018-Jun-20 04:48N 47°10' W 124°46'0 0.4
2018-Jun-20 04:30N 47°09' W 124°46'1 1.6
2018-Jun-20 04:00N 47°09' W 124°46'1 1.8
2018-Jun-20 03:20N 47°07' W 124°46'1 2.2
2018-Jun-20 02:59N 47°07' W 124°46'1 1.5
2018-Jun-20 02:30N 47°06' W 124°46'1 1.8
2018-Jun-20 02:00N 47°05' W 124°45'1 1.9
2018-Jun-20 01:29N 47°04' W 124°44'1 1.9
2018-Jun-20 01:00N 47°03' W 124°44'2 2.1
2018-Jun-20 00:17N 47°02' W 124°44'1 2.0
2018-Jun-20 00:00N 47°01' W 124°44'1 1.2
2018-Jun-19 23:28N 47°01' W 124°44'1 1.8
2018-Jun-19 23:00N 47°02' W 124°44'1 1.9
2018-Jun-19 22:30N 47°03' W 124°44'1 1.9
2018-Jun-19 22:00N 47°03' W 124°44'2 2.3
2018-Jun-19 21:09N 47°05' W 124°45'0 0.5
2018-Jun-19 20:55N 47°05' W 124°44'1 1.9
2018-Jun-19 20:30N 47°05' W 124°44'1 2.0
2018-Jun-19 20:00N 47°04' W 124°44'1 1.9
2018-Jun-19 19:29N 47°03' W 124°43'1 1.9
2018-Jun-19 18:59N 47°02' W 124°44'1 1.9
2018-Jun-19 18:30N 47°01' W 124°44'0 0.3
2018-Jun-19 17:45N 47°01' W 124°44'0 1.8
2018-Jun-19 17:30N 47°01' W 124°44'1 1.8
2018-Jun-19 17:00N 47°02' W 124°44'2 1.8
2018-Jun-19 16:06N 47°04' W 124°44'0 2.3
2018-Jun-19 15:57N 47°04' W 124°45'3 3.8
2018-Jun-19 15:16N 47°04' W 124°49'0 1.5
2018-Jun-19 15:00N 47°04' W 124°49'1 1.7
2018-Jun-19 14:22N 47°03' W 124°49'1 1.9
2018-Jun-19 14:00N 47°02' W 124°49'1 1.9
2018-Jun-19 13:30N 47°02' W 124°48'1 2.7
2018-Jun-19 13:00N 47°01' W 124°47'0 0.8
2018-Jun-19 12:30N 47°01' W 124°47'0 0.6
2018-Jun-19 12:00N 47°01' W 124°47'0 0.6
2018-Jun-19 11:28N 47°00' W 124°47'0 0.6
2018-Jun-19 11:00N 47°00' W 124°47'0 0.5
2018-Jun-19 10:30N 46°60' W 124°47'0 0.4
2018-Jun-19 10:00N 46°60' W 124°47'0 0.4
2018-Jun-19 09:30N 46°59' W 124°47'0 0.2
2018-Jun-19 09:01N 46°59' W 124°47'0 0.1
2018-Jun-19 08:30N 46°59' W 124°47'0 0.2
2018-Jun-19 08:00N 46°59' W 124°47'0 0.2
2018-Jun-19 07:30N 46°59' W 124°47'0 0.2
2018-Jun-19 07:00N 46°60' W 124°47'0 0.3
2018-Jun-19 06:31N 46°60' W 124°47'1 2.9
2018-Jun-19 06:00N 46°59' W 124°45'4 7.8
2018-Jun-19 05:29N 46°58' W 124°39'3 7.2
2018-Jun-19 05:00N 46°57' W 124°35'4 7.7
2018-Jun-19 04:30N 46°56' W 124°29'4 8.0
2018-Jun-19 04:00N 46°56' W 124°23'4 7.9
2018-Jun-19 03:30N 46°56' W 124°17'7 9.0
2018-Jun-19 02:42N 46°55' W 124°07'0 2.6
2018-Jun-19 02:30N 46°55' W 124°07'0 0.0
2018-Jun-19 01:58N 46°55' W 124°07'0 0.0
2018-Jun-19 01:26N 46°55' W 124°07'0 0.0
2018-Jun-19 01:00N 46°55' W 124°07'0 0.0
2018-Jun-19 00:28N 46°55' W 124°07'0 0.0
2018-Jun-19 00:00N 46°55' W 124°07'0 0.0
2018-Jun-18 22:52N 46°55' W 124°07'0 0.0
2018-Jun-18 22:17N 46°55' W 124°07'0 0.0
2018-Jun-18 21:57N 46°55' W 124°07'0 0.0
2018-Jun-18 21:30N 46°55' W 124°07'0 0.0
2018-Jun-18 20:44N 46°55' W 124°07'0 0.0
2018-Jun-18 20:30N 46°55' W 124°07'0 0.0
2018-Jun-18 20:00N 46°55' W 124°07'0 0.0
2018-Jun-18 19:30N 46°55' W 124°07'0 0.0
2018-Jun-18 19:00N 46°55' W 124°07'0 0.0
2018-Jun-18 18:23N 46°55' W 124°07'0 0.0
2018-Jun-18 17:46N 46°55' W 124°07'0 0.0
2018-Jun-18 17:21N 46°55' W 124°07'0 0.0
2018-Jun-18 17:00N 46°55' W 124°07'0 0.0
2018-Jun-18 16:30N 46°55' W 124°07'0 0.0
2018-Jun-18 15:59N 46°55' W 124°07'0 0.0
2018-Jun-18 15:31N 46°55' W 124°07'0 0.0
2018-Jun-18 15:00N 46°55' W 124°07'0 0.0
2018-Jun-18 14:30N 46°55' W 124°07'0 0.0
2018-Jun-18 14:00N 46°55' W 124°07'0 0.0
2018-Jun-18 13:31N 46°55' W 124°07'0 0.0
2018-Jun-18 13:00N 46°55' W 124°07'0 0.0
2018-Jun-18 12:31N 46°55' W 124°07'0 0.0
2018-Jun-18 12:01N 46°55' W 124°07'0 0.0
2018-Jun-18 11:30N 46°55' W 124°07'0 0.0
2018-Jun-18 11:00N 46°55' W 124°07'0 0.0
2018-Jun-18 10:30N 46°55' W 124°07'0 0.0
2018-Jun-18 10:00N 46°55' W 124°07'0 0.0
2018-Jun-18 09:22N 46°55' W 124°07'0 0.0
2018-Jun-18 09:00N 46°55' W 124°07'0 0.0
2018-Jun-18 08:30N 46°55' W 124°07'0 0.0
2018-Jun-18 08:01N 46°55' W 124°07'0 0.0
2018-Jun-18 07:30N 46°55' W 124°07'0 0.0
2018-Jun-18 06:58N 46°55' W 124°07'0 0.0
2018-Jun-18 06:28N 46°55' W 124°07'0 0.0
2018-Jun-18 06:00N 46°55' W 124°07'0 0.0
2018-Jun-18 05:30N 46°55' W 124°07'0 0.0
2018-Jun-18 05:00N 46°55' W 124°07'0 0.0
2018-Jun-18 04:31N 46°55' W 124°07'0 0.0
2018-Jun-18 04:01N 46°55' W 124°07'0 0.0
2018-Jun-18 03:30N 46°55' W 124°07'0 0.0
2018-Jun-18 03:00N 46°55' W 124°07'0 0.0
2018-Jun-18 02:06N 46°55' W 124°07'0 0.0
2018-Jun-18 02:00N 46°55' W 124°07'0 0.0
2018-Jun-18 01:30N 46°55' W 124°07'0 0.0
2018-Jun-18 01:00N 46°55' W 124°07'0 0.0
2018-Jun-18 00:30N 46°55' W 124°07'0 0.0
2018-Jun-18 00:00N 46°55' W 124°07'0 0.0
2018-Jun-17 23:30N 46°55' W 124°07'0 0.0
2018-Jun-17 22:47N 46°55' W 124°07'0 0.0
2018-Jun-17 22:30N 46°55' W 124°07'0 0.0
2018-Jun-17 22:00N 46°55' W 124°07'0 0.0
2018-Jun-17 21:18N 46°55' W 124°07'0 0.0
2018-Jun-17 20:56N 46°55' W 124°07'0 0.0
2018-Jun-17 20:23N 46°55' W 124°07'0 0.0
2018-Jun-17 20:00N 46°55' W 124°07'0 0.0
2018-Jun-17 19:30N 46°55' W 124°07'0 0.0
2018-Jun-17 19:00N 46°55' W 124°07'0 0.0
2018-Jun-17 18:30N 46°55' W 124°07'0 0.0
2018-Jun-17 18:00N 46°55' W 124°07'0 0.0
2018-Jun-17 17:30N 46°55' W 124°07'0 0.0
2018-Jun-17 17:00N 46°55' W 124°07'0 0.2
2018-Jun-17 16:30N 46°55' W 124°07'0 0.0
2018-Jun-17 15:56N 46°55' W 124°07'0 0.0
2018-Jun-17 15:30N 46°55' W 124°07'0 0.0
2018-Jun-17 15:01N 46°55' W 124°07'0 0.0
2018-Jun-17 14:30N 46°55' W 124°07'0 0.0
2018-Jun-17 13:59N 46°55' W 124°07'0 0.0
2018-Jun-17 13:31N 46°55' W 124°07'0 0.0
2018-Jun-17 13:00N 46°55' W 124°07'0 0.0
2018-Jun-17 12:30N 46°55' W 124°07'0 0.0
2018-Jun-17 12:00N 46°55' W 124°07'0 0.0
2018-Jun-17 11:30N 46°55' W 124°07'0 0.0
2018-Jun-17 11:00N 46°55' W 124°07'0 0.0
2018-Jun-17 10:30N 46°55' W 124°07'0 0.0
2018-Jun-17 09:44N 46°55' W 124°07'0 1.7
2018-Jun-17 09:29N 46°55' W 124°07'4 7.5
2018-Jun-17 09:01N 46°55' W 124°12'4 7.9
2018-Jun-17 08:31N 46°55' W 124°18'4 7.9
2018-Jun-17 08:00N 46°55' W 124°23'4 7.5
2018-Jun-17 07:30N 46°56' W 124°29'4 7.6
2018-Jun-17 06:59N 46°57' W 124°34'4 7.7
2018-Jun-17 06:30N 46°58' W 124°39'2 4.3
2018-Jun-17 06:00N 46°60' W 124°42'3 5.1
2018-Jun-17 05:30N 47°01' W 124°45'3 4.9
2018-Jun-17 04:52N 47°03' W 124°49'2 4.3
2018-Jun-17 04:29N 47°04' W 124°50'0 0.3
2018-Jun-17 04:00N 47°04' W 124°50'1 1.7
2018-Jun-17 03:08N 47°02' W 124°50'0 1.7
2018-Jun-17 02:50N 47°02' W 124°50'1 1.7
2018-Jun-17 02:27N 47°01' W 124°50'2 1.7
2018-Jun-17 01:34N 47°00' W 124°49'0 1.8
2018-Jun-17 01:30N 46°60' W 124°49'1 1.8
2018-Jun-17 01:00N 46°59' W 124°48'1 1.8
2018-Jun-17 00:30N 46°59' W 124°47'1 1.7
2018-Jun-17 00:00N 46°59' W 124°46'0 0.9
2018-Jun-16 23:30N 46°58' W 124°45'1 2.0
2018-Jun-16 23:00N 46°59' W 124°47'1 2.0
2018-Jun-16 22:30N 46°59' W 124°48'1 2.0
2018-Jun-16 22:00N 46°60' W 124°49'1 2.9
2018-Jun-16 21:30N 47°01' W 124°49'1 1.6
2018-Jun-16 21:00N 47°02' W 124°50'4 1.9
2018-Jun-16 18:44N 47°06' W 124°50'1 1.8
2018-Jun-16 18:18N 47°06' W 124°49'1 0.1
2018-Jun-15 23:31N 47°05' W 124°50'0 5.5
2018-Jun-15 23:29N 47°05' W 124°50'0 0.1
2018-Jun-15 22:54N 47°05' W 124°50'4 0.8
2018-Jun-15 17:19N 47°01' W 124°51'1 1.8
2018-Jun-15 16:52N 47°00' W 124°50'1 1.8
2018-Jun-15 16:30N 46°60' W 124°50'1 2.3
2018-Jun-15 15:51N 46°60' W 124°47'  
Track history (hours):
 
Tides and Currents Weather Stations Pressure Air Temp Water Temp Dewpoint Dewpoint Depression Visibility Wind Speed Wind Dir Waves Ship Positions

Granada

Owner: Jordan, David P, Garibaldi, OR. More information available from US FCC via Universal Licensing System and Coast Guard Vessel Documentation Center.

Last reported at 2018-Jun-23 11:06 UTC. Time now 2018-Jun-23 11:59 UTC.
Position N 46°55' W 124°08'.

Length 22 m.

MMSI: 337796212.

Date/timePositionNaut miles runAvg speedWind from/ knotsBaromVisibWave heightAir tempDewpointWater temp
2018-Jun-23 11:06N 46°55' W 124°08'1 6.9
2018-Jun-23 11:00N 46°55' W 124°09'3 6.7
2018-Jun-23 10:30N 46°56' W 124°13'4 8.1
2018-Jun-23 10:01N 46°57' W 124°19'4 7.9
2018-Jun-23 09:31N 46°60' W 124°23'44 1.4
2018-Jun-22 01:41N 47°37' W 124°57'0 2.0
2018-Jun-22 01:29N 47°38' W 124°57'32 1.6
2018-Jun-21 05:06N 47°06' W 124°49'1 7.2
2018-Jun-21 04:55N 47°05' W 124°49'3 7.4
2018-Jun-21 04:30N 47°02' W 124°47'1 1.9
2018-Jun-21 03:58N 47°01' W 124°47'2 1.3
2018-Jun-21 02:38N 46°59' W 124°47'1 1.7
2018-Jun-21 02:19N 46°59' W 124°48'1 1.6
2018-Jun-21 01:49N 46°60' W 124°49'1 2.2
2018-Jun-21 01:27N 47°00' W 124°50'1 1.8
2018-Jun-21 00:51N 47°01' W 124°51'2 1.9
2018-Jun-20 23:45N 47°03' W 124°50'1 1.4
2018-Jun-20 23:19N 47°03' W 124°49'1 2.1
2018-Jun-20 22:49N 47°02' W 124°48'1 2.0
2018-Jun-20 22:22N 47°02' W 124°47'1 2.2
2018-Jun-20 21:57N 47°02' W 124°46'1 2.0
2018-Jun-20 21:28N 47°01' W 124°45'0 0.3
2018-Jun-20 20:48N 47°01' W 124°45'1 1.8
2018-Jun-20 20:27N 47°01' W 124°46'1 1.8
2018-Jun-20 19:58N 47°01' W 124°47'1 1.9
2018-Jun-20 19:22N 47°02' W 124°48'0 0.4
2018-Jun-20 18:12N 47°03' W 124°48'1 2.0
2018-Jun-20 17:56N 47°02' W 124°48'1 1.9
2018-Jun-20 17:21N 47°02' W 124°46'1 1.9
2018-Jun-20 16:58N 47°01' W 124°46'1 2.3
2018-Jun-20 16:24N 46°60' W 124°45'0 0.7
2018-Jun-20 15:56N 46°60' W 124°45'1 1.9
2018-Jun-20 15:24N 47°01' W 124°44'1 2.0
2018-Jun-20 14:44N 47°02' W 124°44'1 1.8
2018-Jun-20 14:20N 47°03' W 124°44'1 2.1
2018-Jun-20 13:39N 47°04' W 124°45'1 3.5
2018-Jun-20 13:28N 47°05' W 124°46'4 1.9
2018-Jun-20 11:27N 47°08' W 124°48'1 0.9
2018-Jun-20 10:33N 47°09' W 124°48'0 0.6
2018-Jun-20 10:30N 47°09' W 124°48'0 0.8
2018-Jun-20 09:56N 47°09' W 124°48'0 0.8
2018-Jun-20 09:31N 47°10' W 124°48'0 0.7
2018-Jun-20 09:00N 47°10' W 124°48'1 0.7
2018-Jun-20 08:09N 47°11' W 124°48'0 0.8
2018-Jun-20 07:56N 47°11' W 124°48'0 0.7
2018-Jun-20 07:30N 47°11' W 124°49'0 0.7
2018-Jun-20 06:58N 47°12' W 124°49'1 0.8
2018-Jun-20 05:32N 47°11' W 124°47'1 7.6
2018-Jun-20 05:27N 47°11' W 124°47'1 2.1
2018-Jun-20 04:48N 47°10' W 124°46'0 0.4
2018-Jun-20 04:30N 47°09' W 124°46'1 1.6
2018-Jun-20 04:00N 47°09' W 124°46'1 1.8
2018-Jun-20 03:20N 47°07' W 124°46'1 2.2
2018-Jun-20 02:59N 47°07' W 124°46'1 1.5
2018-Jun-20 02:30N 47°06' W 124°46'1 1.8
2018-Jun-20 02:00N 47°05' W 124°45'1 1.9
2018-Jun-20 01:29N 47°04' W 124°44'1 1.9
2018-Jun-20 01:00N 47°03' W 124°44'2 2.1
2018-Jun-20 00:17N 47°02' W 124°44'1 2.0
2018-Jun-20 00:00N 47°01' W 124°44'1 1.2
2018-Jun-19 23:28N 47°01' W 124°44'1 1.8
2018-Jun-19 23:00N 47°02' W 124°44'1 1.9
2018-Jun-19 22:30N 47°03' W 124°44'1 1.9
2018-Jun-19 22:00N 47°03' W 124°44'2 2.3
2018-Jun-19 21:09N 47°05' W 124°45'0 0.5
2018-Jun-19 20:55N 47°05' W 124°44'1 1.9
2018-Jun-19 20:30N 47°05' W 124°44'1 2.0
2018-Jun-19 20:00N 47°04' W 124°44'1 1.9
2018-Jun-19 19:29N 47°03' W 124°43'1 1.9
2018-Jun-19 18:59N 47°02' W 124°44'1 1.9
2018-Jun-19 18:30N 47°01' W 124°44'0 0.3
2018-Jun-19 17:45N 47°01' W 124°44'0 1.8
2018-Jun-19 17:30N 47°01' W 124°44'1 1.8
2018-Jun-19 17:00N 47°02' W 124°44'2 1.8
2018-Jun-19 16:06N 47°04' W 124°44'0 2.3
2018-Jun-19 15:57N 47°04' W 124°45'3 3.8
2018-Jun-19 15:16N 47°04' W 124°49'0 1.5
2018-Jun-19 15:00N 47°04' W 124°49'1 1.7
2018-Jun-19 14:22N 47°03' W 124°49'1 1.9
2018-Jun-19 14:00N 47°02' W 124°49'1 1.9
2018-Jun-19 13:30N 47°02' W 124°48'1 2.7
2018-Jun-19 13:00N 47°01' W 124°47'0 0.8
2018-Jun-19 12:30N 47°01' W 124°47'0 0.6
2018-Jun-19 12:00N 47°01' W 124°47'0 0.6
2018-Jun-19 11:28N 47°00' W 124°47'0 0.6
2018-Jun-19 11:00N 47°00' W 124°47'0 0.5
2018-Jun-19 10:30N 46°60' W 124°47'0 0.4
2018-Jun-19 10:00N 46°60' W 124°47'0 0.4
2018-Jun-19 09:30N 46°59' W 124°47'0 0.2
2018-Jun-19 09:01N 46°59' W 124°47'0 0.1
2018-Jun-19 08:30N 46°59' W 124°47'0 0.2
2018-Jun-19 08:00N 46°59' W 124°47'0 0.2
2018-Jun-19 07:30N 46°59' W 124°47'0 0.2
2018-Jun-19 07:00N 46°60' W 124°47'0 0.3
2018-Jun-19 06:31N 46°60' W 124°47'1 2.9
2018-Jun-19 06:00N 46°59' W 124°45'4 7.8
2018-Jun-19 05:29N 46°58' W 124°39'3 7.2
2018-Jun-19 05:00N 46°57' W 124°35'4 7.7
2018-Jun-19 04:30N 46°56' W 124°29'4 8.0
2018-Jun-19 04:00N 46°56' W 124°23'4 7.9
2018-Jun-19 03:30N 46°56' W 124°17'7 9.0
2018-Jun-19 02:42N 46°55' W 124°07'0 2.6
2018-Jun-19 02:30N 46°55' W 124°07'0 0.0
2018-Jun-19 01:58N 46°55' W 124°07'0 0.0
2018-Jun-19 01:26N 46°55' W 124°07'0 0.0
2018-Jun-19 01:00N 46°55' W 124°07'0 0.0
2018-Jun-19 00:28N 46°55' W 124°07'0 0.0
2018-Jun-19 00:00N 46°55' W 124°07'0 0.0
2018-Jun-18 22:52N 46°55' W 124°07'0 0.0
2018-Jun-18 22:17N 46°55' W 124°07'0 0.0
2018-Jun-18 21:57N 46°55' W 124°07'0 0.0
2018-Jun-18 21:30N 46°55' W 124°07'0 0.0
2018-Jun-18 20:44N 46°55' W 124°07'0 0.0
2018-Jun-18 20:30N 46°55' W 124°07'0 0.0
2018-Jun-18 20:00N 46°55' W 124°07'0 0.0
2018-Jun-18 19:30N 46°55' W 124°07'0 0.0
2018-Jun-18 19:00N 46°55' W 124°07'0 0.0
2018-Jun-18 18:23N 46°55' W 124°07'0 0.0
2018-Jun-18 17:46N 46°55' W 124°07'0 0.0
2018-Jun-18 17:21N 46°55' W 124°07'0 0.0
2018-Jun-18 17:00N 46°55' W 124°07'0 0.0
2018-Jun-18 16:30N 46°55' W 124°07'0 0.0
2018-Jun-18 15:59N 46°55' W 124°07'0 0.0
2018-Jun-18 15:31N 46°55' W 124°07'0 0.0
2018-Jun-18 15:00N 46°55' W 124°07'0 0.0
2018-Jun-18 14:30N 46°55' W 124°07'0 0.0
2018-Jun-18 14:00N 46°55' W 124°07'0 0.0
2018-Jun-18 13:31N 46°55' W 124°07'0 0.0
2018-Jun-18 13:00N 46°55' W 124°07'0 0.0
2018-Jun-18 12:31N 46°55' W 124°07'0 0.0
2018-Jun-18 12:01N 46°55' W 124°07'0 0.0
2018-Jun-18 11:30N 46°55' W 124°07'0 0.0
2018-Jun-18 11:00N 46°55' W 124°07'0 0.0
2018-Jun-18 10:30N 46°55' W 124°07'0 0.0
2018-Jun-18 10:00N 46°55' W 124°07'0 0.0
2018-Jun-18 09:22N 46°55' W 124°07'0 0.0
2018-Jun-18 09:00N 46°55' W 124°07'0 0.0
2018-Jun-18 08:30N 46°55' W 124°07'0 0.0
2018-Jun-18 08:01N 46°55' W 124°07'0 0.0
2018-Jun-18 07:30N 46°55' W 124°07'0 0.0
2018-Jun-18 06:58N 46°55' W 124°07'0 0.0
2018-Jun-18 06:28N 46°55' W 124°07'0 0.0
2018-Jun-18 06:00N 46°55' W 124°07'0 0.0
2018-Jun-18 05:30N 46°55' W 124°07'0 0.0
2018-Jun-18 05:00N 46°55' W 124°07'0 0.0
2018-Jun-18 04:31N 46°55' W 124°07'0 0.0
2018-Jun-18 04:01N 46°55' W 124°07'0 0.0
2018-Jun-18 03:30N 46°55' W 124°07'0 0.0
2018-Jun-18 03:00N 46°55' W 124°07'0 0.0
2018-Jun-18 02:06N 46°55' W 124°07'0 0.0
2018-Jun-18 02:00N 46°55' W 124°07'0 0.0
2018-Jun-18 01:30N 46°55' W 124°07'0 0.0
2018-Jun-18 01:00N 46°55' W 124°07'0 0.0
2018-Jun-18 00:30N 46°55' W 124°07'0 0.0
2018-Jun-18 00:00N 46°55' W 124°07'0 0.0
2018-Jun-17 23:30N 46°55' W 124°07'0 0.0
2018-Jun-17 22:47N 46°55' W 124°07'0 0.0
2018-Jun-17 22:30N 46°55' W 124°07'0 0.0
2018-Jun-17 22:00N 46°55' W 124°07'0 0.0
2018-Jun-17 21:18N 46°55' W 124°07'0 0.0
2018-Jun-17 20:56N 46°55' W 124°07'0 0.0
2018-Jun-17 20:23N 46°55' W 124°07'0 0.0
2018-Jun-17 20:00N 46°55' W 124°07'0 0.0
2018-Jun-17 19:30N 46°55' W 124°07'0 0.0
2018-Jun-17 19:00N 46°55' W 124°07'0 0.0
2018-Jun-17 18:30N 46°55' W 124°07'0 0.0
2018-Jun-17 18:00N 46°55' W 124°07'0 0.0
2018-Jun-17 17:30N 46°55' W 124°07'0 0.0
2018-Jun-17 17:00N 46°55' W 124°07'0 0.2
2018-Jun-17 16:30N 46°55' W 124°07'0 0.0
2018-Jun-17 15:56N 46°55' W 124°07'0 0.0
2018-Jun-17 15:30N 46°55' W 124°07'0 0.0
2018-Jun-17 15:01N 46°55' W 124°07'0 0.0
2018-Jun-17 14:30N 46°55' W 124°07'0 0.0
2018-Jun-17 13:59N 46°55' W 124°07'0 0.0
2018-Jun-17 13:31N 46°55' W 124°07'0 0.0
2018-Jun-17 13:00N 46°55' W 124°07'0 0.0
2018-Jun-17 12:30N 46°55' W 124°07'0 0.0
2018-Jun-17 12:00N 46°55' W 124°07'0 0.0
2018-Jun-17 11:30N 46°55' W 124°07'0 0.0
2018-Jun-17 11:00N 46°55' W 124°07'0 0.0
2018-Jun-17 10:30N 46°55' W 124°07'0 0.0
2018-Jun-17 09:44N 46°55' W 124°07'0 1.7
2018-Jun-17 09:29N 46°55' W 124°07'4 7.5
2018-Jun-17 09:01N 46°55' W 124°12'4 7.9
2018-Jun-17 08:31N 46°55' W 124°18'4 7.9
2018-Jun-17 08:00N 46°55' W 124°23'4 7.5
2018-Jun-17 07:30N 46°56' W 124°29'4 7.6
2018-Jun-17 06:59N 46°57' W 124°34'4 7.7
2018-Jun-17 06:30N 46°58' W 124°39'2 4.3
2018-Jun-17 06:00N 46°60' W 124°42'3 5.1
2018-Jun-17 05:30N 47°01' W 124°45'3 4.9
2018-Jun-17 04:52N 47°03' W 124°49'2 4.3
2018-Jun-17 04:29N 47°04' W 124°50'0 0.3
2018-Jun-17 04:00N 47°04' W 124°50'1 1.7
2018-Jun-17 03:08N 47°02' W 124°50'0 1.7
2018-Jun-17 02:50N 47°02' W 124°50'1 1.7
2018-Jun-17 02:27N 47°01' W 124°50'2 1.7
2018-Jun-17 01:34N 47°00' W 124°49'0 1.8
2018-Jun-17 01:30N 46°60' W 124°49'1 1.8
2018-Jun-17 01:00N 46°59' W 124°48'1 1.8
2018-Jun-17 00:30N 46°59' W 124°47'1 1.7
2018-Jun-17 00:00N 46°59' W 124°46'0 0.9
2018-Jun-16 23:30N 46°58' W 124°45'1 2.0
2018-Jun-16 23:00N 46°59' W 124°47'1 2.0
2018-Jun-16 22:30N 46°59' W 124°48'1 2.0
2018-Jun-16 22:00N 46°60' W 124°49'1 2.9
2018-Jun-16 21:30N 47°01' W 124°49'1 1.6
2018-Jun-16 21:00N 47°02' W 124°50'4 1.9
2018-Jun-16 18:44N 47°06' W 124°50'1 1.8
2018-Jun-16 18:18N 47°06' W 124°49'1 0.1
2018-Jun-15 23:31N 47°05' W 124°50'0 5.5
2018-Jun-15 23:29N 47°05' W 124°50'0 0.1
2018-Jun-15 22:54N 47°05' W 124°50'4 0.8
2018-Jun-15 17:19N 47°01' W 124°51'1 1.8
2018-Jun-15 16:52N 47°00' W 124°50'1 1.8
2018-Jun-15 16:30N 46°60' W 124°50'1 2.3
2018-Jun-15 15:51N 46°60' W 124°47'  

Dump ship's entire track history